sensor_id;sensor_type;location;lat;lon;timestamp;P1;P2;P0
74440;PMS7003;62870;54.692;25.284;2024-03-02T00:04:26;7.4;7.2;5.6
74440;PMS7003;62870;54.692;25.284;2024-03-02T00:09:26;7.6;7.4;6
74440;PMS7003;62870;54.692;25.284;2024-03-02T00:14:27;8.2;7.6;5.6
74440;PMS7003;62870;54.692;25.284;2024-03-02T00:19:30;8.2;7.8;6.2
74440;PMS7003;62870;54.692;25.284;2024-03-02T00:24:36;9;8.6;6.4
74440;PMS7003;62870;54.692;25.284;2024-03-02T00:30:05;8;8;6.3
74440;PMS7003;62870;54.692;25.284;2024-03-02T00:34:40;8;8;6.3
74440;PMS7003;62870;54.692;25.284;2024-03-02T00:39:30;8.2;8;6.4
74440;PMS7003;62870;54.692;25.284;2024-03-02T00:45:05;6.8;6.8;5.2
74440;PMS7003;62870;54.692;25.284;2024-03-02T00:49:56;6.8;6.8;5.2
74440;PMS7003;62870;54.692;25.284;2024-03-02T00:54:53;9.4;9;6.2
74440;PMS7003;62870;54.692;25.284;2024-03-02T00:59:44;9.6;8.8;6.6
74440;PMS7003;62870;54.692;25.284;2024-03-02T01:04:52;9;8.4;6.6
74440;PMS7003;62870;54.692;25.284;2024-03-02T01:09:44;10;9.4;6.8
74440;PMS7003;62870;54.692;25.284;2024-03-02T01:14:58;11;10.8;7.8
74440;PMS7003;62870;54.692;25.284;2024-03-02T01:19:32;11.6;10.4;7.6
74440;PMS7003;62870;54.692;25.284;2024-03-02T01:24:52;9.4;8.8;6.6
74440;PMS7003;62870;54.692;25.284;2024-03-02T01:29:26;10.4;9.4;7.6
74440;PMS7003;62870;54.692;25.284;2024-03-02T01:35:05;9.8;9.5;7.5
74440;PMS7003;62870;54.692;25.284;2024-03-02T01:39:20;9.8;9.5;7.5
74440;PMS7003;62870;54.692;25.284;2024-03-02T01:44:39;11;10.8;8.6
74440;PMS7003;62870;54.692;25.284;2024-03-02T01:49:26;10.2;10;7.8
74440;PMS7003;62870;54.692;25.284;2024-03-02T01:54:20;10.4;10.2;7.2
74440;PMS7003;62870;54.692;25.284;2024-03-02T01:59:20;10.2;10;7.4
74440;PMS7003;62870;54.692;25.284;2024-03-02T02:05:02;11.4;10.2;8
74440;PMS7003;62870;54.692;25.284;2024-03-02T02:10:05;10.6;9.8;7.8
74440;PMS7003;62870;54.692;25.284;2024-03-02T02:14:32;10.6;9.8;7.8
74440;PMS7003;62870;54.692;25.284;2024-03-02T02:19:50;9.4;9.4;7.6
74440;PMS7003;62870;54.692;25.284;2024-03-02T02:24:28;11.2;10.6;8.6
74440;PMS7003;62870;54.692;25.284;2024-03-02T02:30:05;11.4;10.6;7.8
74440;PMS7003;62870;54.692;25.284;2024-03-02T02:34:44;11.4;10.6;7.8
74440;PMS7003;62870;54.692;25.284;2024-03-02T02:39:22;12.3;11.8;8
74440;PMS7003;62870;54.692;25.284;2024-03-02T02:44:44;11.6;10.8;8.6
74440;PMS7003;62870;54.692;25.284;2024-03-02T02:50:06;10.4;10.4;8.4
74440;PMS7003;62870;54.692;25.284;2024-03-02T02:54:32;10.4;10.4;8.4
74440;PMS7003;62870;54.692;25.284;2024-03-02T02:59:46;12.6;11.4;8.8
74440;PMS7003;62870;54.692;25.284;2024-03-02T03:04:52;11.6;10.8;8.2
74440;PMS7003;62870;54.692;25.284;2024-03-02T03:10:05;11;10.4;8.2
74440;PMS7003;62870;54.692;25.284;2024-03-02T03:14:23;11;10.4;8.2
74440;PMS7003;62870;54.692;25.284;2024-03-02T03:19:26;10.8;10.6;8.2
74440;PMS7003;62870;54.692;25.284;2024-03-02T03:24:54;11.8;10.6;8.4
74440;PMS7003;62870;54.692;25.284;2024-03-02T03:29:26;9.8;8.6;7
74440;PMS7003;62870;54.692;25.284;2024-03-02T03:34:44;10.6;9.8;7.6
74440;PMS7003;62870;54.692;25.284;2024-03-02T03:40:05;10.4;10.4;7.8
74440;PMS7003;62870;54.692;25.284;2024-03-02T03:45:05;10.4;9.8;7.2
74440;PMS7003;62870;54.692;25.284;2024-03-02T03:50:05;10.4;10.2;8.2
74440;PMS7003;62870;54.692;25.284;2024-03-02T03:54:48;10.4;10.2;8.2
74440;PMS7003;62870;54.692;25.284;2024-03-02T03:59:36;10;9.6;7.6
74440;PMS7003;62870;54.692;25.284;2024-03-02T04:04:52;10.8;10.6;8.2
74440;PMS7003;62870;54.692;25.284;2024-03-02T04:09:44;11.8;10.4;8.2
74440;PMS7003;62870;54.692;25.284;2024-03-02T04:15:05;11.6;10.2;8
74440;PMS7003;62870;54.692;25.284;2024-03-02T04:19:44;11.6;10.2;8
74440;PMS7003;62870;54.692;25.284;2024-03-02T04:24:56;9.6;9.4;7.4
74440;PMS7003;62870;54.692;25.284;2024-03-02T04:29:32;11;11;8.4
74440;PMS7003;62870;54.692;25.284;2024-03-02T04:35:05;11.3;10.8;8.3
74440;PMS7003;62870;54.692;25.284;2024-03-02T04:40:05;10.6;9.8;7.6
74440;PMS7003;62870;54.692;25.284;2024-03-02T04:44:44;10.6;9.8;7.6
74440;PMS7003;62870;54.692;25.284;2024-03-02T04:50:05;10.6;10;7.6
74440;PMS7003;62870;54.692;25.284;2024-03-02T04:54:30;10.6;10;7.6
74440;PMS7003;62870;54.692;25.284;2024-03-02T04:59:26;10.6;9.8;7.4
74440;PMS7003;62870;54.692;25.284;2024-03-02T05:04:26;10.8;9.8;7.6
74440;PMS7003;62870;54.692;25.284;2024-03-02T05:09:20;12.2;11.4;8
74440;PMS7003;62870;54.692;25.284;2024-03-02T05:14:26;10.4;10;7.4
74440;PMS7003;62870;54.692;25.284;2024-03-02T05:20:05;10.6;9.6;7.2
74440;PMS7003;62870;54.692;25.284;2024-03-02T05:24:36;10.6;9.6;7.2
74440;PMS7003;62870;54.692;25.284;2024-03-02T05:30:05;10.6;10.6;8.2
74440;PMS7003;62870;54.692;25.284;2024-03-02T05:34:45;10.6;10.6;8.2
74440;PMS7003;62870;54.692;25.284;2024-03-02T05:40:05;10.4;9;7.6
74440;PMS7003;62870;54.692;25.284;2024-03-02T05:44:45;10.4;9;7.6
74440;PMS7003;62870;54.692;25.284;2024-03-02T05:49:57;10.4;9.8;7.6
74440;PMS7003;62870;54.692;25.284;2024-03-02T05:55:03;12.8;11.2;8.6
74440;PMS7003;62870;54.692;25.284;2024-03-02T06:00:05;9.6;9.4;7.4
74440;PMS7003;62870;54.692;25.284;2024-03-02T06:04:55;9.6;9.4;7.4
74440;PMS7003;62870;54.692;25.284;2024-03-02T06:10:07;9.6;8.8;6.6
74440;PMS7003;62870;54.692;25.284;2024-03-02T06:15:07;10.2;9.2;7.8
74440;PMS7003;62870;54.692;25.284;2024-03-02T06:19:39;10.2;9.2;7.8
74440;PMS7003;62870;54.692;25.284;2024-03-02T06:25:07;11.4;10.6;8.2
74440;PMS7003;62870;54.692;25.284;2024-03-02T06:29:35;11.4;10.6;8.2
74440;PMS7003;62870;54.692;25.284;2024-03-02T06:34:56;12;10.6;8.4
74440;PMS7003;62870;54.692;25.284;2024-03-02T06:39:40;11.6;10.8;8.2
74440;PMS7003;62870;54.692;25.284;2024-03-02T06:44:21;10.8;10.5;7.8
74440;PMS7003;62870;54.692;25.284;2024-03-02T06:49:35;11;10.2;8.2
74440;PMS7003;62870;54.692;25.284;2024-03-02T06:55:03;12;11.2;8
74440;PMS7003;62870;54.692;25.284;2024-03-02T06:59:21;10.6;10.4;8.4
74440;PMS7003;62870;54.692;25.284;2024-03-02T07:05:07;10;9.6;7
74440;PMS7003;62870;54.692;25.284;2024-03-02T07:09:39;10;9.6;7
74440;PMS7003;62870;54.692;25.284;2024-03-02T07:15:07;11.6;10.8;7.6
74440;PMS7003;62870;54.692;25.284;2024-03-02T07:19:47;11.6;10.8;7.6
74440;PMS7003;62870;54.692;25.284;2024-03-02T07:24:59;10;9.6;7.6
74440;PMS7003;62870;54.692;25.284;2024-03-02T07:30:07;13;11.2;8.4
74440;PMS7003;62870;54.692;25.284;2024-03-02T07:35:07;10.4;10;7.8
74440;PMS7003;62870;54.692;25.284;2024-03-02T07:39:55;10.4;10;7.8
74440;PMS7003;62870;54.692;25.284;2024-03-02T07:45:06;10;9.6;7.4
74440;PMS7003;62870;54.692;25.284;2024-03-02T07:50:07;11.2;9.6;7.6
74440;PMS7003;62870;54.692;25.284;2024-03-02T07:54:47;11.2;9.6;7.6
74440;PMS7003;62870;54.692;25.284;2024-03-02T08:00:07;11.8;11;8.4
74440;PMS7003;62870;54.692;25.284;2024-03-02T08:04:35;11.8;11;8.4
74440;PMS7003;62870;54.692;25.284;2024-03-02T08:09:21;11.4;10.4;8.2
74440;PMS7003;62870;54.692;25.284;2024-03-02T08:14:39;12.4;11.8;9
74440;PMS7003;62870;54.692;25.284;2024-03-02T08:19:21;13.6;12.6;9.4
74440;PMS7003;62870;54.692;25.284;2024-03-02T08:24:29;12.8;12;9.2
74440;PMS7003;62870;54.692;25.284;2024-03-02T08:29:35;12.4;11.4;8.6
74440;PMS7003;62870;54.692;25.284;2024-03-02T08:34:37;11.8;11.2;8.4
74440;PMS7003;62870;54.692;25.284;2024-03-02T08:40:05;13.3;12.3;9.5
74440;PMS7003;62870;54.692;25.284;2024-03-02T08:44:45;13.3;12.3;9.5
74440;PMS7003;62870;54.692;25.284;2024-03-02T08:49:37;13.2;12.6;9.4
74440;PMS7003;62870;54.692;25.284;2024-03-02T08:55:05;12;11.4;8.8
74440;PMS7003;62870;54.692;25.284;2024-03-02T08:59:37;12;11.4;8.8
74440;PMS7003;62870;54.692;25.284;2024-03-02T09:04:53;14.2;12.8;9.6
74440;PMS7003;62870;54.692;25.284;2024-03-02T09:10:05;12.8;10.6;8.4
74440;PMS7003;62870;54.692;25.284;2024-03-02T09:14:47;12.8;10.6;8.4
74440;PMS7003;62870;54.692;25.284;2024-03-02T09:19:45;12.8;12.2;9.6
74440;PMS7003;62870;54.692;25.284;2024-03-02T09:25:05;12.4;11.2;9.4
74440;PMS7003;62870;54.692;25.284;2024-03-02T09:29:33;12.4;11.2;9.4
74440;PMS7003;62870;54.692;25.284;2024-03-02T09:34:53;13.4;12.2;9.2
74440;PMS7003;62870;54.692;25.284;2024-03-02T09:39:27;11.4;11.2;8.4
74440;PMS7003;62870;54.692;25.284;2024-03-02T09:45:05;11.6;10.6;8.6
74440;PMS7003;62870;54.692;25.284;2024-03-02T09:49:21;11.6;10.6;8.6
74440;PMS7003;62870;54.692;25.284;2024-03-02T09:54:39;12.8;12.6;9
74440;PMS7003;62870;54.692;25.284;2024-03-02T09:59:53;13.4;12.6;9.6
74440;PMS7003;62870;54.692;25.284;2024-03-02T10:04:57;14.4;13.2;10.4
74440;PMS7003;62870;54.692;25.284;2024-03-02T10:09:39;13.2;12.8;9.8
74440;PMS7003;62870;54.692;25.284;2024-03-02T10:15:05;11.8;11.6;9
74440;PMS7003;62870;54.692;25.284;2024-03-02T10:20:36;12.4;11.4;8.8
74440;PMS7003;62870;54.692;25.284;2024-03-02T10:24:21;12.4;11.4;8.8
74440;PMS7003;62870;54.692;25.284;2024-03-02T10:29:57;13.6;12.4;9.8
74440;PMS7003;62870;54.692;25.284;2024-03-02T10:34:37;14.2;13.2;9.8
74440;PMS7003;62870;54.692;25.284;2024-03-02T10:39:53;12.2;11.2;9
74440;PMS7003;62870;54.692;25.284;2024-03-02T10:44:39;12.3;12;9.5
74440;PMS7003;62870;54.692;25.284;2024-03-02T10:49:57;12.8;12.2;9.4
74440;PMS7003;62870;54.692;25.284;2024-03-02T10:54:45;13.8;12.2;9.4
74440;PMS7003;62870;54.692;25.284;2024-03-02T10:59:33;12.8;11.8;9.4
74440;PMS7003;62870;54.692;25.284;2024-03-02T11:04:27;13.6;12.6;10
74440;PMS7003;62870;54.692;25.284;2024-03-02T11:10:05;13.6;13.2;10.2
74440;PMS7003;62870;54.692;25.284;2024-03-02T11:14:33;13.6;13.2;10.2
74440;PMS7003;62870;54.692;25.284;2024-03-02T11:20:05;15.4;14;10.8
74440;PMS7003;62870;54.692;25.284;2024-03-02T11:24:28;15.4;14;10.8
74440;PMS7003;62870;54.692;25.284;2024-03-02T11:29:43;12;11.4;9.8
74440;PMS7003;62870;54.692;25.284;2024-03-02T11:34:34;12.8;11.6;8.6
74440;PMS7003;62870;54.692;25.284;2024-03-02T11:39:37;14.4;13.8;9.4
74440;PMS7003;62870;54.692;25.284;2024-03-02T11:44:53;13;12.8;9.4
74440;PMS7003;62870;54.692;25.284;2024-03-02T11:50:05;12.2;11.4;9
74440;PMS7003;62870;54.692;25.284;2024-03-02T11:55:03;12.2;11.4;9
74440;PMS7003;62870;54.692;25.284;2024-03-02T11:59:27;12.6;11.8;9.6
74440;PMS7003;62870;54.692;25.284;2024-03-02T12:04:57;12;11.6;8.8
74440;PMS7003;62870;54.692;25.284;2024-03-02T12:09:21;12.6;11.8;9
74440;PMS7003;62870;54.692;25.284;2024-03-02T12:14:51;13.6;13.4;10.2
74440;PMS7003;62870;54.692;25.284;2024-03-02T12:19:45;14;12.6;10
74440;PMS7003;62870;54.692;25.284;2024-03-02T12:24:57;14.2;13.4;9.8
74440;PMS7003;62870;54.692;25.284;2024-03-02T12:29:45;12.2;11.8;8.8
74440;PMS7003;62870;54.692;25.284;2024-03-02T12:34:57;11.8;11.6;9
74440;PMS7003;62870;54.692;25.284;2024-03-02T12:39:25;13.2;12.6;9.4
74440;PMS7003;62870;54.692;25.284;2024-03-02T12:45:03;11.8;11.4;9.2
74440;PMS7003;62870;54.692;25.284;2024-03-02T12:49:21;12.5;11.5;8.8
74440;PMS7003;62870;54.692;25.284;2024-03-02T12:54:39;12.6;11.4;8.4
74440;PMS7003;62870;54.692;25.284;2024-03-02T13:00:04;14.2;12.6;9.2
74440;PMS7003;62870;54.692;25.284;2024-03-02T13:04:44;13.2;12.4;9.2
74440;PMS7003;62870;54.692;25.284;2024-03-02T13:09:21;13.6;12.2;9.6
74440;PMS7003;62870;54.692;25.284;2024-03-02T13:14:21;14;13.2;10
74440;PMS7003;62870;54.692;25.284;2024-03-02T13:19:21;13.8;12.4;10.2
74440;PMS7003;62870;54.692;25.284;2024-03-02T13:24:31;13.6;13.2;10.4
74440;PMS7003;62870;54.692;25.284;2024-03-02T13:30:03;14.2;13.4;9.6
74440;PMS7003;62870;54.692;25.284;2024-03-02T13:34:37;13.2;12.6;9.8
74440;PMS7003;62870;54.692;25.284;2024-03-02T13:40:03;12.8;12.4;9.6
74440;PMS7003;62870;54.692;25.284;2024-03-02T13:44:43;13.8;13.2;9.6
74440;PMS7003;62870;54.692;25.284;2024-03-02T13:49:43;12.3;11.8;9.5
74440;PMS7003;62870;54.692;25.284;2024-03-02T13:55:01;14;12.6;9.8
74440;PMS7003;62870;54.692;25.284;2024-03-02T13:59:47;13;12.6;10.4
74440;PMS7003;62870;54.692;25.284;2024-03-02T14:05:03;13.6;13.2;9.2
74440;PMS7003;62870;54.692;25.284;2024-03-02T14:10:03;13;11.8;9.4
74440;PMS7003;62870;54.692;25.284;2024-03-02T14:14:51;12;12;9.4
74440;PMS7003;62870;54.692;25.284;2024-03-02T14:20:03;11.6;11;8.8
74440;PMS7003;62870;54.692;25.284;2024-03-02T14:25:04;11.4;11.2;9.2
74440;PMS7003;62870;54.692;25.284;2024-03-02T14:29:43;13.4;12.8;9.4
74440;PMS7003;62870;54.692;25.284;2024-03-02T14:35:03;12;11.6;9
74440;PMS7003;62870;54.692;25.284;2024-03-02T14:39:31;14.2;12.8;10
74440;PMS7003;62870;54.692;25.284;2024-03-02T14:44:45;11.6;10.4;8.4
74440;PMS7003;62870;54.692;25.284;2024-03-02T14:49:21;11.3;9.8;8
74440;PMS7003;62870;54.692;25.284;2024-03-02T14:54:45;12.2;11.6;8.2
74440;PMS7003;62870;54.692;25.284;2024-03-02T15:00:03;12.8;11.8;8.6
74440;PMS7003;62870;54.692;25.284;2024-03-02T15:04:37;12.4;11.4;8.8
74440;PMS7003;62870;54.692;25.284;2024-03-02T15:09:31;13;12.6;9.6
74440;PMS7003;62870;54.692;25.284;2024-03-02T15:14:57;11.4;11.2;8.6
74440;PMS7003;62870;54.692;25.284;2024-03-02T15:19:43;12;11.2;9
74440;PMS7003;62870;54.692;25.284;2024-03-02T15:24:37;10.8;10.6;8.2
74440;PMS7003;62870;54.692;25.284;2024-03-02T15:30:03;12.2;11.2;8.6
74440;PMS7003;62870;54.692;25.284;2024-03-02T15:34:57;10;9.4;7.8
74440;PMS7003;62870;54.692;25.284;2024-03-02T15:39:23;11.4;10.8;8.6
74440;PMS7003;62870;54.692;25.284;2024-03-02T15:44:27;11;10.4;8
74440;PMS7003;62870;54.692;25.284;2024-03-02T15:49:51;12.3;11.3;8.5
74440;PMS7003;62870;54.692;25.284;2024-03-02T15:55:03;11.4;10;7.8
74440;PMS7003;62870;54.692;25.284;2024-03-02T16:00:03;9.8;9.6;7.8
74440;PMS7003;62870;54.692;25.284;2024-03-02T16:04:43;11;10.4;8
74440;PMS7003;62870;54.692;25.284;2024-03-02T16:10:01;10.4;10.4;8.2
74440;PMS7003;62870;54.692;25.284;2024-03-02T16:14:43;10.8;10.4;8.2
74440;PMS7003;62870;54.692;25.284;2024-03-02T16:19:21;11;10.6;8.4
74440;PMS7003;62870;54.692;25.284;2024-03-02T16:24:21;11.6;11.2;9
74440;PMS7003;62870;54.692;25.284;2024-03-02T16:29:21;11;10.2;8
74440;PMS7003;62870;54.692;25.284;2024-03-02T16:34:27;12.2;11;8.2
74440;PMS7003;62870;54.692;25.284;2024-03-02T16:39:43;10.6;10.2;8
74440;PMS7003;62870;54.692;25.284;2024-03-02T16:44:37;12;10.8;8.6
74440;PMS7003;62870;54.692;25.284;2024-03-02T16:50:03;12;11.6;9
74440;PMS7003;62870;54.692;25.284;2024-03-02T16:54:43;11;10;8.3
74440;PMS7003;62870;54.692;25.284;2024-03-02T16:59:21;11.2;10.4;8.2
74440;PMS7003;62870;54.692;25.284;2024-03-02T17:05:03;11;10.6;8
74440;PMS7003;62870;54.692;25.284;2024-03-02T17:09:33;11.2;10.6;8
74440;PMS7003;62870;54.692;25.284;2024-03-02T17:14:51;11.8;11;7.8
74440;PMS7003;62870;54.692;25.284;2024-03-02T17:19:57;11.4;11;8.8
74440;PMS7003;62870;54.692;25.284;2024-03-02T17:24:51;11.2;11;8.2
74440;PMS7003;62870;54.692;25.284;2024-03-02T17:29:39;11.2;10.8;8.8
74440;PMS7003;62870;54.692;25.284;2024-03-02T17:35:05;11.2;11.2;8.2
74440;PMS7003;62870;54.692;25.284;2024-03-02T17:39:27;11.2;10.4;8
74440;PMS7003;62870;54.692;25.284;2024-03-02T17:44:51;12.4;11.2;8
74440;PMS7003;62870;54.692;25.284;2024-03-02T17:49:21;10;9.6;7.4
74440;PMS7003;62870;54.692;25.284;2024-03-02T17:55:07;9.4;9;7.2
74440;PMS7003;62870;54.692;25.284;2024-03-02T17:59:27;9.4;9;7.2
74440;PMS7003;62870;54.692;25.284;2024-03-02T18:04:27;10.4;10;7.6
74440;PMS7003;62870;54.692;25.284;2024-03-02T18:09:29;10.8;10.4;8.2
74440;PMS7003;62870;54.692;25.284;2024-03-02T18:14:27;10.2;10.2;7.8
74440;PMS7003;62870;54.692;25.284;2024-03-02T18:25:07;9.8;9.6;7.4
74440;PMS7003;62870;54.692;25.284;2024-03-02T18:30:07;10.2;9.8;7.8
74440;PMS7003;62870;54.692;25.284;2024-03-02T18:34:48;10.2;9.8;7.8
74440;PMS7003;62870;54.692;25.284;2024-03-02T18:39:59;10.6;9.6;7.6
74440;PMS7003;62870;54.692;25.284;2024-03-02T18:44:33;10;9.8;7.6
74440;PMS7003;62870;54.692;25.284;2024-03-02T18:49:55;10;9.8;7
74440;PMS7003;62870;54.692;25.284;2024-03-02T18:54:46;11.3;10.3;7.8
74440;PMS7003;62870;54.692;25.284;2024-03-02T18:59:58;10.4;9.8;7.8
74440;PMS7003;62870;54.692;25.284;2024-03-02T19:04:45;9.8;8.8;6.8
74440;PMS7003;62870;54.692;25.284;2024-03-02T19:09:59;9.6;8.6;7.2
74440;PMS7003;62870;54.692;25.284;2024-03-02T19:14:35;10.4;9.6;7.6
74440;PMS7003;62870;54.692;25.284;2024-03-02T19:20:10;9.6;9.4;7.2
74440;PMS7003;62870;54.692;25.284;2024-03-02T19:24:35;9.6;9.4;7.2
74440;PMS7003;62870;54.692;25.284;2024-03-02T19:29:49;8.4;8.2;6
74440;PMS7003;62870;54.692;25.284;2024-03-02T19:35:09;10;9.6;7.4
74440;PMS7003;62870;54.692;25.284;2024-03-02T19:39:27;10;9.6;7.4
74440;PMS7003;62870;54.692;25.284;2024-03-02T19:44:35;9.2;9;6.8
74440;PMS7003;62870;54.692;25.284;2024-03-02T19:49:39;8.6;8;6.2
74440;PMS7003;62870;54.692;25.284;2024-03-02T19:54:45;8;7.8;6.3
74440;PMS7003;62870;54.692;25.284;2024-03-02T19:59:29;9.4;8.4;6.6
74440;PMS7003;62870;54.692;25.284;2024-03-02T20:05:09;7.2;7;5.8
74440;PMS7003;62870;54.692;25.284;2024-03-02T20:09:39;7.2;7;5.8
74440;PMS7003;62870;54.692;25.284;2024-03-02T20:15:09;8.6;8.6;6.8
74440;PMS7003;62870;54.692;25.284;2024-03-02T20:20:11;9;8;5.6
74440;PMS7003;62870;54.692;25.284;2024-03-02T20:25:09;8;7.6;6
74440;PMS7003;62870;54.692;25.284;2024-03-02T20:29:45;8;7.6;6
74440;PMS7003;62870;54.692;25.284;2024-03-02T20:34:53;8.4;8.2;6.8
74440;PMS7003;62870;54.692;25.284;2024-03-02T20:40:10;8.4;7.6;6.2
74440;PMS7003;62870;54.692;25.284;2024-03-02T20:45:09;8;8;6.4
74440;PMS7003;62870;54.692;25.284;2024-03-02T20:49:37;8;8;6.4
74440;PMS7003;62870;54.692;25.284;2024-03-02T20:55:09;8;8;6.6
74440;PMS7003;62870;54.692;25.284;2024-03-02T21:00:09;7.4;6.4;5.2
74440;PMS7003;62870;54.692;25.284;2024-03-02T21:04:50;7.4;6.4;5.2
74440;PMS7003;62870;54.692;25.284;2024-03-02T21:10:09;7.2;7.2;5.8
74440;PMS7003;62870;54.692;25.284;2024-03-02T21:14:35;7.2;7.2;5.8
74440;PMS7003;62870;54.692;25.284;2024-03-02T21:19:39;8.2;7.2;5.4
74440;PMS7003;62870;54.692;25.284;2024-03-02T21:24:27;7.4;7;5.4
74440;PMS7003;62870;54.692;25.284;2024-03-02T21:29:21;7.2;7;5.4
74440;PMS7003;62870;54.692;25.284;2024-03-02T21:34:47;8.6;7.6;5.8
74440;PMS7003;62870;54.692;25.284;2024-03-02T21:39:21;7.6;7.6;5.6
74440;PMS7003;62870;54.692;25.284;2024-03-02T21:44:33;6.4;6;5
74440;PMS7003;62870;54.692;25.284;2024-03-02T21:50:09;7.4;6.6;5
74440;PMS7003;62870;54.692;25.284;2024-03-02T21:54:49;7.4;6.6;5
74440;PMS7003;62870;54.692;25.284;2024-03-02T21:59:39;6.8;6.3;4.8
74440;PMS7003;62870;54.692;25.284;2024-03-02T22:05:09;7;6.8;5.2
74440;PMS7003;62870;54.692;25.284;2024-03-02T22:09:59;7;6.8;5.2
74440;PMS7003;62870;54.692;25.284;2024-03-02T22:14:49;5.8;5.6;4.8
74440;PMS7003;62870;54.692;25.284;2024-03-02T22:19:41;6.2;5.8;4.8
74440;PMS7003;62870;54.692;25.284;2024-03-02T22:24:31;8.2;6.8;5.2
74440;PMS7003;62870;54.692;25.284;2024-03-02T22:29:27;6.8;6.2;5.2
74440;PMS7003;62870;54.692;25.284;2024-03-02T22:35:09;6.8;6.4;4.8
74440;PMS7003;62870;54.692;25.284;2024-03-02T22:39:29;6.8;6.4;4.8
74440;PMS7003;62870;54.692;25.284;2024-03-02T22:44:55;5.4;5.4;4.2
74440;PMS7003;62870;54.692;25.284;2024-03-02T22:49:35;6.6;6.4;5
74440;PMS7003;62870;54.692;25.284;2024-03-02T22:55:09;6.3;5.5;5
74440;PMS7003;62870;54.692;25.284;2024-03-02T22:59:21;6.3;5.5;5
74440;PMS7003;62870;54.692;25.284;2024-03-02T23:04:21;5.6;5;4.2
74440;PMS7003;62870;54.692;25.284;2024-03-02T23:09:55;6.2;5.2;4
74440;PMS7003;62870;54.692;25.284;2024-03-02T23:14:27;5;4.8;3.6
74440;PMS7003;62870;54.692;25.284;2024-03-02T23:19:27;5;5;4.2
74440;PMS7003;62870;54.692;25.284;2024-03-02T23:25:09;6;5.2;4
74440;PMS7003;62870;54.692;25.284;2024-03-02T23:30:11;4.6;3.8;3.2
74440;PMS7003;62870;54.692;25.284;2024-03-02T23:34:39;4.6;3.8;3.2
74440;PMS7003;62870;54.692;25.284;2024-03-02T23:39:59;6.4;5.4;4
74440;PMS7003;62870;54.692;25.284;2024-03-02T23:44:27;6;5.2;4.2
74440;PMS7003;62870;54.692;25.284;2024-03-02T23:49:55;4.4;4;3.2
74440;PMS7003;62870;54.692;25.284;2024-03-02T23:54:45;5;4.8;4
74440;PMS7003;62870;54.692;25.284;2024-03-02T23:59:59;6.5;5.3;3.8
